createdAt,value
2023-02-08T00:00:02.740Z,82.57
2023-02-08T00:02:29.342Z,93.25
2023-02-08T00:04:55.920Z,90.90
2023-02-08T00:07:22.521Z,92.13
2023-02-08T00:09:49.384Z,101.25
2023-02-08T00:12:16.941Z,93.35
2023-02-08T00:14:43.528Z,99.47
2023-02-08T00:17:10.124Z,102.82
2023-02-08T00:19:36.709Z,106.90
2023-02-08T00:22:03.296Z,115.65
2023-02-08T00:24:29.882Z,115.07
2023-02-08T00:26:56.488Z,144.00
2023-02-08T00:29:23.082Z,132.15
2023-02-08T00:31:49.737Z,127.32
2023-02-08T00:34:16.330Z,125.57
2023-02-08T00:36:42.875Z,162.70
2023-02-08T00:39:09.520Z,133.00
2023-02-08T00:41:36.104Z,137.30
2023-02-08T00:44:02.686Z,130.52
2023-02-08T00:46:29.351Z,125.28
2023-02-08T00:48:55.890Z,128.10
2023-02-08T00:51:22.536Z,136.30
2023-02-08T00:53:49.090Z,134.05
2023-02-08T00:56:16.150Z,147.38
2023-02-08T00:58:43.100Z,143.35
2023-02-08T01:01:10.047Z,142.40
2023-02-08T01:03:39.443Z,152.98
2023-02-08T01:06:13.672Z,143.50
2023-02-08T01:08:40.362Z,162.73
2023-02-08T01:11:16.306Z,165.52
2023-02-08T01:13:42.953Z,162.73
2023-02-08T01:16:11.156Z,166.18
2023-02-08T01:18:38.540Z,171.77
2023-02-08T01:21:13.988Z,167.45
2023-02-08T01:23:41.552Z,165.93
2023-02-08T01:26:10.184Z,157.70
2023-02-08T01:28:37.271Z,161.20
2023-02-08T01:31:08.950Z,152.48
2023-02-08T01:33:36.302Z,148.65
2023-02-08T01:36:03.498Z,170.27
2023-02-08T01:38:30.907Z,251.38
2023-02-08T01:40:57.496Z,148.05
2023-02-08T01:43:29.855Z,145.40
2023-02-08T01:45:56.447Z,151.05
2023-02-08T01:48:37.507Z,157.85
2023-02-08T01:51:13.481Z,147.48
2023-02-08T01:53:41.457Z,171.13
2023-02-08T01:56:13.124Z,172.23
2023-02-08T01:58:51.464Z,158.18
2023-02-08T02:01:18.299Z,162.32
2023-02-08T02:03:45.172Z,164.00
2023-02-08T02:06:17.067Z,158.90
2023-02-08T02:09:05.488Z,155.45
2023-02-08T02:11:32.315Z,133.57
2023-02-08T02:13:59.107Z,151.05
2023-02-08T02:16:25.691Z,159.45
2023-02-08T02:18:52.554Z,140.80
2023-02-08T02:21:22.161Z,134.48
2023-02-08T02:24:17.562Z,143.18
2023-02-08T02:27:05.587Z,308.02
2023-02-08T02:29:32.133Z,120.28
2023-02-08T02:32:22.146Z,107.90
2023-02-08T02:34:58.833Z,116.90
2023-02-08T02:37:49.255Z,126.95
2023-02-08T02:40:36.992Z,134.63
2023-02-08T02:43:42.881Z,137.85
2023-02-08T02:49:02.564Z,115.13
2023-02-08T02:51:33.925Z,131.35
2023-02-08T02:54:07.152Z,141.45
2023-02-08T02:56:43.208Z,135.02
2023-02-08T02:59:11.629Z,101.97
2023-02-08T03:01:39.490Z,102.20
2023-02-08T03:04:33.675Z,102.65
2023-02-08T03:07:14.585Z,89.38
2023-02-08T03:09:50.443Z,90.93
2023-02-08T03:12:49.017Z,88.05
2023-02-08T03:15:30.390Z,93.70
2023-02-08T03:18:12.161Z,99.68
2023-02-08T03:20:43.160Z,107.25
2023-02-08T03:23:19.672Z,106.18
2023-02-08T03:26:37.148Z,111.15
2023-02-08T03:29:14.073Z,114.22
2023-02-08T03:32:06.728Z,125.75
2023-02-08T03:35:15.400Z,128.82
2023-02-08T03:38:05.408Z,137.77
2023-02-08T03:40:35.173Z,146.82
2023-02-08T03:43:09.094Z,154.60
2023-02-08T03:45:52.641Z,169.30
2023-02-08T03:48:21.884Z,170.20
2023-02-08T03:50:52.726Z,179.13
2023-02-08T03:53:22.616Z,182.68
2023-02-08T03:55:56.627Z,189.27
2023-02-08T03:58:32.456Z,198.02
2023-02-08T04:01:05.975Z,199.82
2023-02-08T04:03:34.777Z,211.23
2023-02-08T04:06:01.560Z,210.52
2023-02-08T04:08:28.148Z,203.02
2023-02-08T04:10:54.784Z,196.43
2023-02-08T04:13:21.481Z,196.00
2023-02-08T04:15:48.117Z,185.07
2023-02-08T04:18:14.728Z,191.20
2023-02-08T04:20:41.585Z,191.43
2023-02-08T04:23:08.316Z,194.57
2023-02-08T04:25:34.834Z,194.15
2023-02-08T04:28:01.424Z,192.82
2023-02-08T04:30:28.058Z,192.77
2023-02-08T04:32:54.637Z,176.27
2023-02-08T04:35:21.290Z,170.73
2023-02-08T04:37:47.907Z,166.13
2023-02-08T04:40:14.517Z,161.57
2023-02-08T04:42:41.121Z,155.55
2023-02-08T04:45:08.221Z,149.38
2023-02-08T04:47:34.752Z,148.48
2023-02-08T04:50:01.584Z,148.02
2023-02-08T04:52:28.242Z,145.93
2023-02-08T04:54:54.813Z,142.95
2023-02-08T04:57:21.397Z,140.80
2023-02-08T04:59:47.982Z,130.20
2023-02-08T05:02:14.530Z,132.63
2023-02-08T05:04:41.172Z,126.78
2023-02-08T05:07:07.755Z,127.97
2023-02-08T05:09:34.347Z,123.65
2023-02-08T05:12:00.903Z,120.07
2023-02-08T05:14:27.496Z,115.70
2023-02-08T05:16:54.058Z,114.85
2023-02-08T05:19:20.612Z,113.10
2023-02-08T05:21:47.201Z,109.30
2023-02-08T05:24:13.898Z,109.60
2023-02-08T05:26:41.564Z,104.80
2023-02-08T05:29:08.238Z,101.20
2023-02-08T05:31:34.951Z,100.82
2023-02-08T05:34:01.786Z,96.68
2023-02-08T05:36:28.564Z,98.20
2023-02-08T05:38:55.097Z,95.60
2023-02-08T05:41:21.842Z,94.60
2023-02-08T05:43:48.461Z,91.82
2023-02-08T05:46:15.155Z,93.20
2023-02-08T05:48:41.779Z,88.15
2023-02-08T05:51:08.840Z,85.22
2023-02-08T05:53:35.418Z,82.65
2023-02-08T05:56:01.951Z,75.28
2023-02-08T05:58:28.903Z,75.00
2023-02-08T06:00:55.474Z,74.28
2023-02-08T06:03:22.600Z,73.95
2023-02-08T06:05:49.236Z,74.40
2023-02-08T06:08:15.856Z,73.65
2023-02-08T06:10:43.302Z,74.05
2023-02-08T06:13:09.881Z,75.78
2023-02-08T06:15:36.414Z,78.70
2023-02-08T06:18:03.261Z,75.28
2023-02-08T06:20:29.822Z,78.45
2023-02-08T06:22:56.466Z,80.53
2023-02-08T06:25:23.018Z,84.57
2023-02-08T06:27:49.626Z,85.30
2023-02-08T06:30:16.873Z,84.80
2023-02-08T06:32:43.518Z,87.57
2023-02-08T06:35:10.277Z,89.63
2023-02-08T06:37:37.314Z,90.75
2023-02-08T06:40:05.175Z,94.80
2023-02-08T06:42:31.871Z,93.70
2023-02-08T06:44:59.060Z,98.85
2023-02-08T06:47:27.143Z,100.15
2023-02-08T06:49:53.947Z,101.90
2023-02-08T06:52:21.948Z,97.70
2023-02-08T06:54:48.646Z,104.20
2023-02-08T06:57:15.602Z,107.63
2023-02-08T06:59:42.622Z,106.63
2023-02-08T07:02:18.474Z,111.43
2023-02-08T07:04:45.560Z,114.18
2023-02-08T07:07:17.042Z,116.15
2023-02-08T07:09:43.652Z,119.25
2023-02-08T07:12:10.529Z,115.38
2023-02-08T07:14:40.044Z,113.88
2023-02-08T07:17:06.994Z,108.93
2023-02-08T07:19:33.950Z,103.25
2023-02-08T07:22:07.243Z,97.82
2023-02-08T07:24:39.314Z,93.72
2023-02-08T07:27:07.644Z,87.82
2023-02-08T07:29:34.767Z,84.80
2023-02-08T07:32:02.614Z,80.53
2023-02-08T07:34:30.763Z,81.03
2023-02-08T07:36:57.354Z,73.85
2023-02-08T07:39:24.249Z,71.63
2023-02-08T07:41:50.998Z,68.13
2023-02-08T07:44:17.801Z,66.50
2023-02-08T07:46:44.506Z,65.53
2023-02-08T07:49:11.120Z,62.13
2023-02-08T07:51:37.857Z,58.15
2023-02-08T07:54:04.570Z,54.78
2023-02-08T07:56:31.349Z,54.67
2023-02-08T07:58:57.903Z,49.50
2023-02-08T08:01:24.556Z,46.22
2023-02-08T08:03:52.330Z,42.78
2023-02-08T08:06:20.498Z,42.33
2023-02-08T08:08:47.671Z,40.65
2023-02-08T08:11:15.305Z,38.40
2023-02-08T08:13:42.105Z,37.47
2023-02-08T08:16:09.217Z,33.85
2023-02-08T08:18:36.256Z,34.40
2023-02-08T08:21:03.645Z,32.60
2023-02-08T08:23:33.046Z,31.73
2023-02-08T08:26:00.571Z,29.77
2023-02-08T08:28:27.521Z,32.05
2023-02-08T08:30:54.493Z,29.45
2023-02-08T08:33:21.218Z,28.05
2023-02-08T08:35:47.925Z,27.23
2023-02-08T08:38:14.540Z,27.40
2023-02-08T08:40:41.444Z,27.65
2023-02-08T08:43:08.271Z,27.17
2023-02-08T08:45:36.261Z,25.10
2023-02-08T08:48:06.306Z,25.77
2023-02-08T08:50:32.872Z,26.08
2023-02-08T08:52:59.571Z,25.20
2023-02-08T08:55:27.843Z,26.15
2023-02-08T08:57:55.055Z,28.55
2023-02-08T09:00:21.864Z,27.17
2023-02-08T09:02:48.721Z,27.02
2023-02-08T09:05:15.310Z,27.20
2023-02-08T09:07:41.915Z,28.38
2023-02-08T09:10:08.627Z,27.92
2023-02-08T09:12:35.319Z,25.77
2023-02-08T09:15:01.924Z,25.95
2023-02-08T09:17:28.607Z,25.67
2023-02-08T09:19:55.192Z,25.50
2023-02-08T09:22:21.769Z,27.70
2023-02-08T09:24:48.428Z,23.35
2023-02-08T09:27:15.014Z,22.13
2023-02-08T09:29:41.547Z,21.38
2023-02-08T09:32:10.195Z,22.73
2023-02-08T09:34:39.826Z,23.08
2023-02-08T09:37:07.056Z,24.42
2023-02-08T09:39:34.847Z,21.83
2023-02-08T09:42:20.881Z,22.85
2023-02-08T09:44:53.570Z,22.52
2023-02-08T09:47:32.219Z,22.90
2023-02-08T09:50:34.282Z,21.67
2023-02-08T09:53:20.424Z,22.13
2023-02-08T09:55:51.771Z,22.27
2023-02-08T09:58:34.626Z,23.60
2023-02-08T10:01:04.093Z,22.90
2023-02-08T10:03:45.131Z,23.48
2023-02-08T10:06:17.504Z,24.92
2023-02-08T10:08:46.163Z,23.70
2023-02-08T10:11:27.858Z,23.90
2023-02-08T10:14:09.657Z,24.42
2023-02-08T10:17:10.180Z,25.67
2023-02-08T10:19:39.462Z,24.77
2023-02-08T10:22:38.973Z,25.45
2023-02-08T10:25:27.996Z,25.63
2023-02-08T10:28:16.278Z,23.45
2023-02-08T10:31:10.431Z,23.48
2023-02-08T10:33:58.532Z,23.58
2023-02-08T10:36:28.726Z,23.42
2023-02-08T10:38:56.261Z,23.70
2023-02-08T10:41:32.165Z,23.52
2023-02-08T10:44:13.011Z,22.17
2023-02-08T10:46:51.213Z,22.88
2023-02-08T10:49:31.958Z,26.20
2023-02-08T10:51:58.611Z,24.55
2023-02-08T10:54:25.213Z,24.05
2023-02-08T10:56:58.343Z,23.70
2023-02-08T10:59:35.528Z,24.27
2023-02-08T11:02:02.222Z,23.38
2023-02-08T11:04:29.089Z,23.85
2023-02-08T11:06:55.660Z,24.88
2023-02-08T11:09:31.299Z,25.42
2023-02-08T11:12:00.276Z,24.75
2023-02-08T11:14:46.860Z,26.63
2023-02-08T11:17:31.480Z,25.73
2023-02-08T11:19:59.537Z,26.98
2023-02-08T11:22:31.227Z,28.23
2023-02-08T11:25:07.607Z,24.88
2023-02-08T11:27:36.695Z,26.92
2023-02-08T11:30:24.268Z,25.63
2023-02-08T11:33:18.617Z,26.58
2023-02-08T11:35:54.951Z,27.23
2023-02-08T11:38:28.251Z,24.48
2023-02-08T11:40:58.647Z,25.10
2023-02-08T11:43:34.956Z,24.42
2023-02-08T11:46:04.963Z,22.17
2023-02-08T11:48:42.869Z,23.63
2023-02-08T11:51:12.737Z,24.15
2023-02-08T11:53:40.996Z,23.67
2023-02-08T11:56:18.548Z,19.83
2023-02-08T11:59:18.738Z,17.90
2023-02-08T12:01:45.736Z,18.70
2023-02-08T12:04:15.017Z,18.27
2023-02-08T12:06:53.888Z,17.67
2023-02-08T12:09:53.315Z,18.38
2023-02-08T12:12:35.908Z,19.65
2023-02-08T12:15:48.123Z,17.13
2023-02-08T12:18:22.746Z,18.50
2023-02-08T12:20:59.994Z,18.52
2023-02-08T12:23:53.419Z,17.77
2023-02-08T12:26:28.946Z,18.35
2023-02-08T12:29:47.304Z,19.77
2023-02-08T12:32:36.311Z,17.10
2023-02-08T12:35:50.964Z,18.35
2023-02-08T12:38:59.310Z,17.40
2023-02-08T12:41:44.477Z,18.33
2023-02-08T12:44:38.470Z,17.90
2023-02-08T12:47:39.074Z,18.93
2023-02-08T12:50:31.833Z,18.65
2023-02-08T12:53:05.876Z,18.67
2023-02-08T12:55:38.846Z,18.65
2023-02-08T12:58:32.426Z,18.48
2023-02-08T13:01:27.621Z,17.23
2023-02-08T13:04:13.612Z,18.67
2023-02-08T13:06:43.085Z,17.50
2023-02-08T13:09:46.711Z,17.42
2023-02-08T13:12:22.175Z,19.08
2023-02-08T13:15:28.399Z,17.98
2023-02-08T13:18:16.748Z,17.95
2023-02-08T13:20:46.154Z,19.48
2023-02-08T13:23:26.513Z,18.20
2023-02-08T13:26:00.744Z,18.83
2023-02-08T13:31:08.609Z,18.85
2023-02-08T13:33:44.444Z,18.33
2023-02-08T13:36:25.804Z,17.13
2023-02-08T13:38:53.705Z,16.63
2023-02-08T13:41:24.696Z,18.85
2023-02-08T13:44:01.561Z,16.75
2023-02-08T13:46:35.404Z,18.15
2023-02-08T13:49:01.998Z,17.10
2023-02-08T13:51:31.536Z,16.42
2023-02-08T13:53:58.101Z,17.58
2023-02-08T13:56:45.168Z,18.65
2023-02-08T13:59:24.671Z,16.88
2023-02-08T14:02:12.908Z,17.13
2023-02-08T14:04:43.134Z,17.02
2023-02-08T14:07:15.838Z,18.60
2023-02-08T14:10:30.573Z,18.70
2023-02-08T14:13:03.923Z,18.77
2023-02-08T14:15:33.866Z,18.33
2023-02-08T14:18:01.873Z,19.15
2023-02-08T14:20:33.797Z,19.02
2023-02-08T14:23:21.645Z,19.15
2023-02-08T14:25:50.996Z,19.75
2023-02-08T14:28:32.128Z,20.10
2023-02-08T14:31:01.206Z,19.50
2023-02-08T14:33:38.706Z,19.90
2023-02-08T14:36:08.813Z,19.23
2023-02-08T14:38:52.406Z,20.20
2023-02-08T14:41:54.485Z,20.10
2023-02-08T14:44:39.479Z,22.15
2023-02-08T14:47:36.943Z,22.10
2023-02-08T14:50:26.141Z,21.58
2023-02-08T14:52:58.904Z,20.90
2023-02-08T14:55:30.395Z,21.08
2023-02-08T14:58:00.688Z,20.98
2023-02-08T15:00:34.194Z,20.58
2023-02-08T15:03:02.093Z,20.15
2023-02-08T15:05:31.724Z,20.25
2023-02-08T15:08:00.260Z,21.05
2023-02-08T15:10:28.634Z,21.02
2023-02-08T15:13:02.480Z,22.60
2023-02-08T15:15:36.637Z,22.85
2023-02-08T15:18:06.207Z,24.75
2023-02-08T15:20:35.923Z,23.27
2023-02-08T15:23:19.132Z,24.00
2023-02-08T15:25:56.043Z,25.50
2023-02-08T15:28:25.250Z,25.48
2023-02-08T15:31:09.263Z,25.80
2023-02-08T15:33:39.337Z,26.00
2023-02-08T15:36:08.912Z,26.83
2023-02-08T15:38:38.809Z,28.25
2023-02-08T15:41:08.469Z,25.60
2023-02-08T15:43:37.297Z,26.65
2023-02-08T15:46:06.978Z,26.45
2023-02-08T15:48:35.938Z,27.70
2023-02-08T15:51:03.072Z,28.08
2023-02-08T15:53:30.956Z,29.17
2023-02-08T15:56:03.898Z,29.17
2023-02-08T15:58:35.678Z,30.45
2023-02-08T16:01:05.373Z,30.17
2023-02-08T16:03:33.352Z,29.35
2023-02-08T16:06:06.693Z,28.05
2023-02-08T16:08:39.080Z,28.27
2023-02-08T16:11:23.135Z,28.30
2023-02-08T16:13:53.151Z,27.73
2023-02-08T16:16:26.648Z,27.50
2023-02-08T16:19:01.379Z,28.50
2023-02-08T16:24:28.330Z,26.17
2023-02-08T16:26:57.067Z,25.85
2023-02-08T16:29:46.287Z,26.85
2023-02-08T16:32:28.463Z,25.42
2023-02-08T16:34:55.514Z,28.50
2023-02-08T16:37:33.789Z,25.88
2023-02-08T16:40:20.539Z,26.75
2023-02-08T16:42:47.499Z,26.15
2023-02-08T16:45:17.479Z,25.70
2023-02-08T16:47:50.064Z,26.77
2023-02-08T16:50:23.166Z,24.65
2023-02-08T16:52:55.212Z,25.20
2023-02-08T16:55:27.833Z,27.67
2023-02-08T16:57:57.202Z,26.35
2023-02-08T17:00:30.026Z,24.73
2023-02-08T17:02:56.747Z,25.98
2023-02-08T17:05:27.125Z,25.23
2023-02-08T17:07:53.796Z,25.52
2023-02-08T17:10:25.711Z,26.00
2023-02-08T17:13:03.809Z,26.25
2023-02-08T17:15:40.459Z,25.73
2023-02-08T17:18:07.182Z,25.13
2023-02-08T17:20:35.698Z,23.85
2023-02-08T17:23:04.454Z,25.35
2023-02-08T17:25:32.623Z,24.83
2023-02-08T17:28:05.171Z,25.52
2023-02-08T17:30:37.793Z,24.45
2023-02-08T17:33:06.792Z,24.30
2023-02-08T17:35:35.365Z,23.08
2023-02-08T17:38:02.117Z,24.15
2023-02-08T17:40:32.661Z,23.50
2023-02-08T17:43:00.217Z,23.25
2023-02-08T17:45:28.198Z,23.75
2023-02-08T17:47:56.307Z,23.73
2023-02-08T17:50:23.667Z,22.98
2023-02-08T17:52:50.368Z,24.00
2023-02-08T17:55:18.587Z,23.15
2023-02-08T17:57:45.701Z,24.02
2023-02-08T18:00:18.606Z,24.33
2023-02-08T18:02:47.452Z,23.15
2023-02-08T18:05:18.669Z,24.08
2023-02-08T18:07:45.244Z,23.05
2023-02-08T18:10:15.675Z,23.15
2023-02-08T18:12:42.993Z,25.00
2023-02-08T18:15:16.114Z,22.52
2023-02-08T18:17:44.029Z,23.70
2023-02-08T18:20:14.252Z,22.35
2023-02-08T18:22:42.997Z,22.38
2023-02-08T18:25:11.032Z,22.92
2023-02-08T18:27:37.913Z,22.83
2023-02-08T18:30:04.983Z,22.98
2023-02-08T18:32:31.602Z,23.05
2023-02-08T18:34:58.644Z,24.25
2023-02-08T18:37:25.660Z,21.83
2023-02-08T18:39:52.379Z,22.75
2023-02-08T18:42:19.174Z,24.10
2023-02-08T18:44:45.916Z,23.38
2023-02-08T18:47:12.683Z,23.27
2023-02-08T18:49:42.167Z,24.17
2023-02-08T18:52:11.422Z,22.48
2023-02-08T18:54:39.736Z,25.02
2023-02-08T18:57:09.578Z,23.02
2023-02-08T18:59:37.275Z,24.73
2023-02-08T19:02:07.085Z,24.63
2023-02-08T19:04:40.435Z,24.05
2023-02-08T19:07:07.843Z,24.13
2023-02-08T19:09:36.165Z,24.63
2023-02-08T19:12:03.166Z,23.13
2023-02-08T19:14:30.244Z,25.13
2023-02-08T19:16:57.067Z,23.48
2023-02-08T19:19:23.610Z,24.13
2023-02-08T19:21:50.203Z,23.70
2023-02-08T19:24:16.782Z,25.50
2023-02-08T19:26:43.420Z,24.63
2023-02-08T19:29:15.665Z,26.63
2023-02-08T19:31:42.984Z,23.88
2023-02-08T19:34:10.730Z,25.10
2023-02-08T19:36:41.928Z,26.63
2023-02-08T19:39:08.523Z,26.02
2023-02-08T19:41:37.990Z,24.98
2023-02-08T19:44:07.307Z,24.50
2023-02-08T19:46:38.714Z,25.48
2023-02-08T19:49:06.779Z,25.45
2023-02-08T19:51:36.925Z,23.73
2023-02-08T19:54:09.256Z,24.98
2023-02-08T19:56:36.329Z,23.48
2023-02-08T19:59:06.278Z,25.15
2023-02-08T20:01:34.402Z,23.65
2023-02-08T20:04:01.971Z,23.17
2023-02-08T20:06:34.779Z,25.13
2023-02-08T20:09:01.787Z,25.65
2023-02-08T20:11:31.083Z,27.67
2023-02-08T20:13:59.676Z,26.10
2023-02-08T20:16:29.362Z,27.77
2023-02-08T20:18:59.584Z,27.08
2023-02-08T20:21:27.032Z,28.02
2023-02-08T20:23:53.872Z,26.55
2023-02-08T20:26:24.382Z,24.05
2023-02-08T20:28:53.888Z,25.20
2023-02-08T20:31:24.166Z,24.48
2023-02-08T20:33:51.829Z,27.05
2023-02-08T20:36:23.982Z,27.27
2023-02-08T20:38:53.296Z,25.30
2023-02-08T20:41:21.693Z,24.85
2023-02-08T20:43:48.777Z,27.60
2023-02-08T20:46:19.377Z,26.45
2023-02-08T20:48:46.125Z,28.00
2023-02-08T20:51:15.347Z,31.85
2023-02-08T20:53:42.909Z,31.63
2023-02-08T20:56:12.564Z,28.65
2023-02-08T20:58:39.549Z,29.35
2023-02-08T21:01:14.766Z,28.25
2023-02-08T21:03:41.716Z,28.35
2023-02-08T21:06:23.312Z,29.25
2023-02-08T21:08:55.332Z,27.80
2023-02-08T21:11:25.083Z,25.92
2023-02-08T21:13:51.865Z,27.10
2023-02-08T21:16:18.910Z,24.48
2023-02-08T21:18:45.874Z,26.17
2023-02-08T21:21:13.288Z,26.15
2023-02-08T21:23:39.857Z,25.92
2023-02-08T21:26:08.524Z,25.70
2023-02-08T21:28:35.706Z,25.52
2023-02-08T21:31:05.970Z,24.08
2023-02-08T21:33:32.929Z,28.70
2023-02-08T21:36:10.319Z,33.60
2023-02-08T21:38:36.966Z,40.35
2023-02-08T21:41:12.964Z,46.15
2023-02-08T21:43:39.811Z,45.15
2023-02-08T21:46:08.216Z,41.90
2023-02-08T21:48:55.848Z,45.90
2023-02-08T21:51:42.313Z,44.63
2023-02-08T21:54:31.379Z,48.17
2023-02-08T21:56:59.592Z,49.55
2023-02-08T21:59:26.728Z,55.05
2023-02-08T22:01:53.296Z,49.05
2023-02-08T22:04:19.876Z,42.83
2023-02-08T22:06:47.112Z,46.58
2023-02-08T22:09:13.692Z,53.42
2023-02-08T22:11:42.651Z,51.08
2023-02-08T22:14:13.546Z,57.28
2023-02-08T22:16:40.935Z,51.75
2023-02-08T22:19:07.864Z,48.92
2023-02-08T22:21:34.807Z,54.85
2023-02-08T22:24:01.574Z,54.85
2023-02-08T22:26:28.429Z,56.60
2023-02-08T22:28:55.061Z,56.17
2023-02-08T22:31:21.746Z,55.92
2023-02-08T22:33:48.492Z,54.67
2023-02-08T22:36:15.041Z,57.13
2023-02-08T22:38:41.692Z,57.58
2023-02-08T22:41:16.309Z,53.60
2023-02-08T22:43:43.162Z,57.28
2023-02-08T22:46:09.927Z,56.63
2023-02-08T22:48:36.991Z,56.17
2023-02-08T22:51:08.521Z,56.97
2023-02-08T22:53:35.369Z,62.25
2023-02-08T22:56:02.374Z,57.72
2023-02-08T22:58:29.071Z,66.57
2023-02-08T23:00:56.366Z,61.75
2023-02-08T23:03:23.675Z,53.15
2023-02-08T23:05:51.749Z,66.90
2023-02-08T23:08:21.305Z,57.85
2023-02-08T23:10:48.134Z,64.50
2023-02-08T23:13:14.962Z,59.03
2023-02-08T23:15:43.841Z,72.50
2023-02-08T23:18:10.493Z,78.60
2023-02-08T23:20:39.220Z,64.05
2023-02-08T23:23:05.796Z,71.40
2023-02-08T23:25:32.381Z,90.97
2023-02-08T23:27:59.141Z,66.75
2023-02-08T23:30:25.780Z,62.17
2023-02-08T23:32:52.332Z,70.55
2023-02-08T23:35:18.960Z,103.00
2023-02-08T23:37:45.514Z,66.88
2023-02-08T23:40:12.417Z,72.97
2023-02-08T23:42:39.091Z,84.25
2023-02-08T23:45:06.229Z,69.43
2023-02-08T23:47:33.015Z,76.93
2023-02-08T23:49:59.637Z,84.25
2023-02-08T23:52:26.368Z,83.45
2023-02-08T23:54:52.978Z,82.63
2023-02-08T23:57:19.551Z,94.20
2023-02-08T23:59:46.220Z,93.38
